sensor_id;sensor_type;location;lat;lon;timestamp;P1;durP1;ratioP1;P2;durP2;ratioP2
80694;SDS011;70059;42.702;23.312;2023-08-17T00:00:11;16.58;;;14.90;;
80694;SDS011;70059;42.702;23.312;2023-08-17T00:02:40;15.95;;;14.30;;
80694;SDS011;70059;42.702;23.312;2023-08-17T00:05:06;15.98;;;14.27;;
80694;SDS011;70059;42.702;23.312;2023-08-17T00:07:33;15.40;;;13.93;;
80694;SDS011;70059;42.702;23.312;2023-08-17T00:10:01;16.55;;;13.57;;
80694;SDS011;70059;42.702;23.312;2023-08-17T00:12:27;14.95;;;13.55;;
80694;SDS011;70059;42.702;23.312;2023-08-17T00:14:53;14.88;;;13.43;;
80694;SDS011;70059;42.702;23.312;2023-08-17T00:17:19;14.23;;;13.02;;
80694;SDS011;70059;42.702;23.312;2023-08-17T00:19:45;14.35;;;13.05;;
80694;SDS011;70059;42.702;23.312;2023-08-17T00:22:12;14.77;;;13.18;;
80694;SDS011;70059;42.702;23.312;2023-08-17T00:24:37;14.35;;;12.50;;
80694;SDS011;70059;42.702;23.312;2023-08-17T00:27:03;13.35;;;12.05;;
80694;SDS011;70059;42.702;23.312;2023-08-17T00:29:29;14.73;;;13.20;;
80694;SDS011;70059;42.702;23.312;2023-08-17T00:31:56;14.70;;;12.80;;
80694;SDS011;70059;42.702;23.312;2023-08-17T00:34:22;14.32;;;12.80;;
80694;SDS011;70059;42.702;23.312;2023-08-17T00:36:47;13.98;;;12.50;;
80694;SDS011;70059;42.702;23.312;2023-08-17T00:39:13;14.52;;;13.13;;
80694;SDS011;70059;42.702;23.312;2023-08-17T00:41:39;13.35;;;12.25;;
80694;SDS011;70059;42.702;23.312;2023-08-17T00:44:05;13.75;;;12.38;;
80694;SDS011;70059;42.702;23.312;2023-08-17T00:46:31;14.38;;;12.93;;
80694;SDS011;70059;42.702;23.312;2023-08-17T00:48:57;13.45;;;12.05;;
80694;SDS011;70059;42.702;23.312;2023-08-17T00:51:23;14.30;;;12.40;;
80694;SDS011;70059;42.702;23.312;2023-08-17T00:53:50;14.43;;;12.77;;
80694;SDS011;70059;42.702;23.312;2023-08-17T00:56:17;14.10;;;12.70;;
80694;SDS011;70059;42.702;23.312;2023-08-17T00:58:43;14.32;;;13.10;;
80694;SDS011;70059;42.702;23.312;2023-08-17T01:01:09;13.57;;;12.38;;
80694;SDS011;70059;42.702;23.312;2023-08-17T01:03:34;13.60;;;11.75;;
80694;SDS011;70059;42.702;23.312;2023-08-17T01:06:01;13.45;;;12.20;;
80694;SDS011;70059;42.702;23.312;2023-08-17T01:08:28;13.38;;;12.07;;
80694;SDS011;70059;42.702;23.312;2023-08-17T01:13:44;13.65;;;12.45;;
80694;SDS011;70059;42.702;23.312;2023-08-17T01:16:12;13.70;;;12.40;;
80694;SDS011;70059;42.702;23.312;2023-08-17T01:18:43;13.73;;;12.30;;
80694;SDS011;70059;42.702;23.312;2023-08-17T01:21:11;14.35;;;12.18;;
80694;SDS011;70059;42.702;23.312;2023-08-17T01:23:44;14.15;;;11.43;;
80694;SDS011;70059;42.702;23.312;2023-08-17T01:26:10;13.27;;;11.98;;
80694;SDS011;70059;42.702;23.312;2023-08-17T01:28:36;12.85;;;11.60;;
80694;SDS011;70059;42.702;23.312;2023-08-17T01:31:08;13.75;;;11.93;;
80694;SDS011;70059;42.702;23.312;2023-08-17T01:33:56;13.35;;;11.85;;
80694;SDS011;70059;42.702;23.312;2023-08-17T01:39:00;13.00;;;11.63;;
80694;SDS011;70059;42.702;23.312;2023-08-17T01:41:28;13.65;;;12.32;;
80694;SDS011;70059;42.702;23.312;2023-08-17T01:43:55;12.65;;;11.50;;
80694;SDS011;70059;42.702;23.312;2023-08-17T01:46:21;19.13;;;12.32;;
80694;SDS011;70059;42.702;23.312;2023-08-17T01:48:47;16.15;;;12.10;;
80694;SDS011;70059;42.702;23.312;2023-08-17T01:51:19;13.75;;;12.43;;
80694;SDS011;70059;42.702;23.312;2023-08-17T01:53:45;14.27;;;12.23;;
80694;SDS011;70059;42.702;23.312;2023-08-17T01:56:11;19.23;;;12.00;;
80694;SDS011;70059;42.702;23.312;2023-08-17T01:58:36;14.45;;;12.52;;
80694;SDS011;70059;42.702;23.312;2023-08-17T02:01:02;13.57;;;12.18;;
80694;SDS011;70059;42.702;23.312;2023-08-17T02:03:28;15.57;;;12.23;;
80694;SDS011;70059;42.702;23.312;2023-08-17T02:05:57;12.88;;;11.63;;
80694;SDS011;70059;42.702;23.312;2023-08-17T02:08:23;13.02;;;11.43;;
80694;SDS011;70059;42.702;23.312;2023-08-17T02:10:49;17.80;;;11.50;;
80694;SDS011;70059;42.702;23.312;2023-08-17T02:13:15;12.48;;;11.27;;
80694;SDS011;70059;42.702;23.312;2023-08-17T02:15:41;12.35;;;11.20;;
80694;SDS011;70059;42.702;23.312;2023-08-17T02:18:07;13.07;;;11.60;;
80694;SDS011;70059;42.702;23.312;2023-08-17T02:20:33;14.02;;;11.57;;
80694;SDS011;70059;42.702;23.312;2023-08-17T02:22:59;14.25;;;11.27;;
80694;SDS011;70059;42.702;23.312;2023-08-17T02:25:25;12.45;;;11.25;;
80694;SDS011;70059;42.702;23.312;2023-08-17T02:27:51;12.93;;;11.80;;
80694;SDS011;70059;42.702;23.312;2023-08-17T02:30:17;12.93;;;11.68;;
80694;SDS011;70059;42.702;23.312;2023-08-17T02:32:43;12.98;;;11.77;;
80694;SDS011;70059;42.702;23.312;2023-08-17T02:35:09;13.05;;;11.65;;
80694;SDS011;70059;42.702;23.312;2023-08-17T02:37:35;12.75;;;11.40;;
80694;SDS011;70059;42.702;23.312;2023-08-17T02:40:01;13.45;;;12.02;;
80694;SDS011;70059;42.702;23.312;2023-08-17T02:42:27;14.35;;;11.85;;
80694;SDS011;70059;42.702;23.312;2023-08-17T02:44:53;13.10;;;11.60;;
80694;SDS011;70059;42.702;23.312;2023-08-17T02:47:19;12.90;;;11.60;;
80694;SDS011;70059;42.702;23.312;2023-08-17T02:49:44;16.02;;;12.80;;
80694;SDS011;70059;42.702;23.312;2023-08-17T02:52:10;15.50;;;12.68;;
80694;SDS011;70059;42.702;23.312;2023-08-17T02:54:36;13.20;;;11.85;;
80694;SDS011;70059;42.702;23.312;2023-08-17T02:57:01;13.60;;;12.02;;
80694;SDS011;70059;42.702;23.312;2023-08-17T02:59:27;12.88;;;11.68;;
80694;SDS011;70059;42.702;23.312;2023-08-17T03:01:53;14.13;;;11.73;;
80694;SDS011;70059;42.702;23.312;2023-08-17T03:04:18;15.40;;;12.75;;
80694;SDS011;70059;42.702;23.312;2023-08-17T03:06:44;13.35;;;12.02;;
80694;SDS011;70059;42.702;23.312;2023-08-17T03:09:10;13.30;;;12.10;;
80694;SDS011;70059;42.702;23.312;2023-08-17T03:11:36;13.32;;;12.02;;
80694;SDS011;70059;42.702;23.312;2023-08-17T03:14:01;12.80;;;11.50;;
80694;SDS011;70059;42.702;23.312;2023-08-17T03:16:28;13.82;;;12.20;;
80694;SDS011;70059;42.702;23.312;2023-08-17T03:18:55;15.00;;;12.27;;
80694;SDS011;70059;42.702;23.312;2023-08-17T03:21:21;13.20;;;11.65;;
80694;SDS011;70059;42.702;23.312;2023-08-17T03:23:47;13.82;;;11.32;;
80694;SDS011;70059;42.702;23.312;2023-08-17T03:26:14;14.15;;;12.15;;
80694;SDS011;70059;42.702;23.312;2023-08-17T03:28:40;13.55;;;11.63;;
80694;SDS011;70059;42.702;23.312;2023-08-17T03:31:08;14.80;;;12.23;;
80694;SDS011;70059;42.702;23.312;2023-08-17T03:33:35;12.25;;;11.15;;
80694;SDS011;70059;42.702;23.312;2023-08-17T03:36:01;12.43;;;11.43;;
80694;SDS011;70059;42.702;23.312;2023-08-17T03:38:29;12.70;;;11.45;;
80694;SDS011;70059;42.702;23.312;2023-08-17T03:40:55;17.20;;;13.32;;
80694;SDS011;70059;42.702;23.312;2023-08-17T03:43:21;14.73;;;13.32;;
80694;SDS011;70059;42.702;23.312;2023-08-17T03:45:46;14.57;;;13.27;;
80694;SDS011;70059;42.702;23.312;2023-08-17T03:48:12;13.77;;;12.15;;
80694;SDS011;70059;42.702;23.312;2023-08-17T03:50:38;14.40;;;12.63;;
80694;SDS011;70059;42.702;23.312;2023-08-17T03:53:03;14.15;;;12.68;;
80694;SDS011;70059;42.702;23.312;2023-08-17T03:55:29;15.68;;;12.77;;
80694;SDS011;70059;42.702;23.312;2023-08-17T03:57:55;14.35;;;12.02;;
80694;SDS011;70059;42.702;23.312;2023-08-17T04:00:21;13.68;;;12.32;;
80694;SDS011;70059;42.702;23.312;2023-08-17T04:02:46;14.07;;;12.57;;
80694;SDS011;70059;42.702;23.312;2023-08-17T04:05:12;13.40;;;12.10;;
80694;SDS011;70059;42.702;23.312;2023-08-17T04:07:40;13.50;;;12.10;;
80694;SDS011;70059;42.702;23.312;2023-08-17T04:10:06;13.70;;;11.68;;
80694;SDS011;70059;42.702;23.312;2023-08-17T04:12:32;19.27;;;12.07;;
80694;SDS011;70059;42.702;23.312;2023-08-17T04:14:58;13.40;;;12.07;;
80694;SDS011;70059;42.702;23.312;2023-08-17T04:17:24;13.90;;;12.60;;
80694;SDS011;70059;42.702;23.312;2023-08-17T04:19:50;15.10;;;11.88;;
80694;SDS011;70059;42.702;23.312;2023-08-17T04:22:15;13.88;;;12.48;;
80694;SDS011;70059;42.702;23.312;2023-08-17T04:24:41;15.63;;;12.90;;
80694;SDS011;70059;42.702;23.312;2023-08-17T04:27:08;13.95;;;12.57;;
80694;SDS011;70059;42.702;23.312;2023-08-17T04:29:34;16.45;;;13.40;;
80694;SDS011;70059;42.702;23.312;2023-08-17T04:32:01;18.75;;;12.90;;
80694;SDS011;70059;42.702;23.312;2023-08-17T04:34:26;15.23;;;13.05;;
80694;SDS011;70059;42.702;23.312;2023-08-17T04:36:52;17.65;;;12.75;;
80694;SDS011;70059;42.702;23.312;2023-08-17T04:39:18;17.25;;;13.15;;
80694;SDS011;70059;42.702;23.312;2023-08-17T04:41:43;15.43;;;13.77;;
80694;SDS011;70059;42.702;23.312;2023-08-17T04:44:09;14.75;;;13.25;;
80694;SDS011;70059;42.702;23.312;2023-08-17T04:46:35;14.18;;;12.77;;
80694;SDS011;70059;42.702;23.312;2023-08-17T04:49:01;14.55;;;12.68;;
80694;SDS011;70059;42.702;23.312;2023-08-17T04:51:27;14.40;;;12.98;;
80694;SDS011;70059;42.702;23.312;2023-08-17T04:53:52;14.43;;;11.90;;
80694;SDS011;70059;42.702;23.312;2023-08-17T04:56:18;13.48;;;11.90;;
80694;SDS011;70059;42.702;23.312;2023-08-17T04:58:44;14.02;;;12.07;;
80694;SDS011;70059;42.702;23.312;2023-08-17T05:01:09;12.90;;;11.70;;
80694;SDS011;70059;42.702;23.312;2023-08-17T05:03:35;14.93;;;10.65;;
80694;SDS011;70059;42.702;23.312;2023-08-17T05:06:01;15.02;;;11.70;;
80694;SDS011;70059;42.702;23.312;2023-08-17T05:08:26;12.20;;;10.90;;
80694;SDS011;70059;42.702;23.312;2023-08-17T05:10:52;13.98;;;11.15;;
80694;SDS011;70059;42.702;23.312;2023-08-17T05:13:18;14.68;;;12.23;;
80694;SDS011;70059;42.702;23.312;2023-08-17T05:15:44;11.55;;;10.52;;
80694;SDS011;70059;42.702;23.312;2023-08-17T05:18:10;14.30;;;11.32;;
80694;SDS011;70059;42.702;23.312;2023-08-17T05:20:36;15.25;;;11.15;;
80694;SDS011;70059;42.702;23.312;2023-08-17T05:23:01;12.23;;;11.07;;
80694;SDS011;70059;42.702;23.312;2023-08-17T05:25:27;11.70;;;10.57;;
80694;SDS011;70059;42.702;23.312;2023-08-17T05:27:54;11.73;;;10.48;;
80694;SDS011;70059;42.702;23.312;2023-08-17T05:30:20;12.23;;;10.75;;
80694;SDS011;70059;42.702;23.312;2023-08-17T05:32:46;12.00;;;10.80;;
80694;SDS011;70059;42.702;23.312;2023-08-17T05:35:12;11.95;;;10.82;;
80694;SDS011;70059;42.702;23.312;2023-08-17T05:37:37;12.65;;;11.25;;
80694;SDS011;70059;42.702;23.312;2023-08-17T05:40:03;11.68;;;10.57;;
80694;SDS011;70059;42.702;23.312;2023-08-17T05:42:30;15.50;;;11.73;;
80694;SDS011;70059;42.702;23.312;2023-08-17T05:44:58;12.57;;;11.27;;
80694;SDS011;70059;42.702;23.312;2023-08-17T05:47:24;11.93;;;10.75;;
80694;SDS011;70059;42.702;23.312;2023-08-17T05:49:52;13.70;;;10.80;;
80694;SDS011;70059;42.702;23.312;2023-08-17T05:52:18;13.07;;;10.73;;
80694;SDS011;70059;42.702;23.312;2023-08-17T05:54:44;14.35;;;10.95;;
80694;SDS011;70059;42.702;23.312;2023-08-17T05:57:09;16.17;;;11.85;;
80694;SDS011;70059;42.702;23.312;2023-08-17T05:59:35;21.70;;;11.27;;
80694;SDS011;70059;42.702;23.312;2023-08-17T06:02:01;15.90;;;10.82;;
80694;SDS011;70059;42.702;23.312;2023-08-17T06:04:27;13.38;;;10.40;;
80694;SDS011;70059;42.702;23.312;2023-08-17T06:06:52;13.43;;;10.90;;
80694;SDS011;70059;42.702;23.312;2023-08-17T06:09:18;12.13;;;11.02;;
80694;SDS011;70059;42.702;23.312;2023-08-17T06:11:44;14.40;;;11.35;;
80694;SDS011;70059;42.702;23.312;2023-08-17T06:16:45;14.80;;;11.13;;
80694;SDS011;70059;42.702;23.312;2023-08-17T06:19:11;22.65;;;12.63;;
80694;SDS011;70059;42.702;23.312;2023-08-17T06:21:36;24.88;;;12.48;;
80694;SDS011;70059;42.702;23.312;2023-08-17T06:24:02;20.25;;;13.02;;
80694;SDS011;70059;42.702;23.312;2023-08-17T06:29:04;15.85;;;13.25;;
80694;SDS011;70059;42.702;23.312;2023-08-17T06:31:30;17.92;;;14.00;;
80694;SDS011;70059;42.702;23.312;2023-08-17T06:33:55;17.08;;;13.70;;
80694;SDS011;70059;42.702;23.312;2023-08-17T06:36:21;14.88;;;13.27;;
80694;SDS011;70059;42.702;23.312;2023-08-17T06:38:47;15.13;;;13.68;;
80694;SDS011;70059;42.702;23.312;2023-08-17T06:41:13;15.30;;;13.75;;
80694;SDS011;70059;42.702;23.312;2023-08-17T06:43:39;14.82;;;13.43;;
80694;SDS011;70059;42.702;23.312;2023-08-17T06:46:04;14.70;;;13.27;;
80694;SDS011;70059;42.702;23.312;2023-08-17T06:48:31;16.35;;;13.88;;
80694;SDS011;70059;42.702;23.312;2023-08-17T06:51:00;21.83;;;14.02;;
80694;SDS011;70059;42.702;23.312;2023-08-17T06:53:27;16.60;;;14.25;;
80694;SDS011;70059;42.702;23.312;2023-08-17T06:55:52;20.88;;;13.63;;
80694;SDS011;70059;42.702;23.312;2023-08-17T06:58:18;15.75;;;12.50;;
80694;SDS011;70059;42.702;23.312;2023-08-17T07:00:44;22.88;;;14.52;;
80694;SDS011;70059;42.702;23.312;2023-08-17T07:03:15;20.15;;;14.68;;
80694;SDS011;70059;42.702;23.312;2023-08-17T07:05:42;34.35;;;14.52;;
80694;SDS011;70059;42.702;23.312;2023-08-17T07:08:07;23.08;;;14.02;;
80694;SDS011;70059;42.702;23.312;2023-08-17T07:10:33;54.88;;;16.73;;
80694;SDS011;70059;42.702;23.312;2023-08-17T07:12:59;30.02;;;15.40;;
80694;SDS011;70059;42.702;23.312;2023-08-17T07:15:28;17.40;;;13.00;;
80694;SDS011;70059;42.702;23.312;2023-08-17T07:17:54;18.85;;;12.50;;
80694;SDS011;70059;42.702;23.312;2023-08-17T07:20:20;14.00;;;12.50;;
80694;SDS011;70059;42.702;23.312;2023-08-17T07:22:46;13.10;;;11.80;;
80694;SDS011;70059;42.702;23.312;2023-08-17T07:25:11;44.88;;;16.48;;
80694;SDS011;70059;42.702;23.312;2023-08-17T07:27:38;23.95;;;14.20;;
80694;SDS011;70059;42.702;23.312;2023-08-17T07:30:04;30.52;;;13.90;;
80694;SDS011;70059;42.702;23.312;2023-08-17T07:32:30;45.63;;;15.00;;
80694;SDS011;70059;42.702;23.312;2023-08-17T07:34:56;27.13;;;13.00;;
80694;SDS011;70059;42.702;23.312;2023-08-17T07:37:21;83.72;;;20.65;;
80694;SDS011;70059;42.702;23.312;2023-08-17T07:39:47;30.67;;;13.30;;
80694;SDS011;70059;42.702;23.312;2023-08-17T07:42:13;39.47;;;13.52;;
80694;SDS011;70059;42.702;23.312;2023-08-17T07:44:38;35.67;;;14.23;;
80694;SDS011;70059;42.702;23.312;2023-08-17T07:47:05;12.52;;;11.20;;
80694;SDS011;70059;42.702;23.312;2023-08-17T07:49:31;12.68;;;11.63;;
80694;SDS011;70059;42.702;23.312;2023-08-17T07:51:56;11.30;;;10.40;;
80694;SDS011;70059;42.702;23.312;2023-08-17T07:54:22;11.60;;;10.43;;
80694;SDS011;70059;42.702;23.312;2023-08-17T07:56:48;12.88;;;11.50;;
80694;SDS011;70059;42.702;23.312;2023-08-17T07:59:13;12.32;;;11.23;;
80694;SDS011;70059;42.702;23.312;2023-08-17T08:01:39;12.25;;;10.98;;
80694;SDS011;70059;42.702;23.312;2023-08-17T08:04:07;11.85;;;10.57;;
80694;SDS011;70059;42.702;23.312;2023-08-17T08:06:32;12.40;;;10.90;;
80694;SDS011;70059;42.702;23.312;2023-08-17T08:08:58;10.75;;;9.85;;
80694;SDS011;70059;42.702;23.312;2023-08-17T08:11:24;11.43;;;10.52;;
80694;SDS011;70059;42.702;23.312;2023-08-17T08:13:52;11.95;;;10.95;;
80694;SDS011;70059;42.702;23.312;2023-08-17T08:16:18;11.10;;;10.07;;
80694;SDS011;70059;42.702;23.312;2023-08-17T08:18:43;10.82;;;9.93;;
80694;SDS011;70059;42.702;23.312;2023-08-17T08:21:09;10.95;;;10.05;;
80694;SDS011;70059;42.702;23.312;2023-08-17T08:23:35;11.25;;;10.00;;
80694;SDS011;70059;42.702;23.312;2023-08-17T08:26:00;11.25;;;10.45;;
80694;SDS011;70059;42.702;23.312;2023-08-17T08:28:26;11.05;;;10.15;;
80694;SDS011;70059;42.702;23.312;2023-08-17T08:30:52;11.50;;;10.50;;
80694;SDS011;70059;42.702;23.312;2023-08-17T08:33:18;10.80;;;9.90;;
80694;SDS011;70059;42.702;23.312;2023-08-17T08:35:43;11.30;;;10.52;;
80694;SDS011;70059;42.702;23.312;2023-08-17T08:38:10;12.00;;;11.02;;
80694;SDS011;70059;42.702;23.312;2023-08-17T08:40:36;11.70;;;10.65;;
80694;SDS011;70059;42.702;23.312;2023-08-17T08:43:05;11.20;;;10.15;;
80694;SDS011;70059;42.702;23.312;2023-08-17T08:45:35;11.60;;;10.00;;
80694;SDS011;70059;42.702;23.312;2023-08-17T08:48:02;13.13;;;11.85;;
80694;SDS011;70059;42.702;23.312;2023-08-17T08:50:31;11.75;;;10.80;;
80694;SDS011;70059;42.702;23.312;2023-08-17T08:52:58;13.30;;;11.23;;
80694;SDS011;70059;42.702;23.312;2023-08-17T08:55:26;11.68;;;10.00;;
80694;SDS011;70059;42.702;23.312;2023-08-17T08:58:00;12.10;;;10.90;;
80694;SDS011;70059;42.702;23.312;2023-08-17T09:00:27;11.77;;;10.70;;
80694;SDS011;70059;42.702;23.312;2023-08-17T09:02:54;11.20;;;10.10;;
80694;SDS011;70059;42.702;23.312;2023-08-17T09:05:21;12.07;;;11.07;;
80694;SDS011;70059;42.702;23.312;2023-08-17T09:07:50;10.98;;;10.07;;
80694;SDS011;70059;42.702;23.312;2023-08-17T09:10:18;11.55;;;10.25;;
80694;SDS011;70059;42.702;23.312;2023-08-17T09:12:45;12.07;;;10.98;;
80694;SDS011;70059;42.702;23.312;2023-08-17T09:15:12;11.82;;;10.52;;
80694;SDS011;70059;42.702;23.312;2023-08-17T09:17:38;11.77;;;10.68;;
80694;SDS011;70059;42.702;23.312;2023-08-17T09:20:05;11.18;;;10.07;;
80694;SDS011;70059;42.702;23.312;2023-08-17T09:22:42;11.67;;;10.70;;
80694;SDS011;70059;42.702;23.312;2023-08-17T09:25:11;11.50;;;10.50;;
80694;SDS011;70059;42.702;23.312;2023-08-17T09:27:47;11.38;;;10.32;;
80694;SDS011;70059;42.702;23.312;2023-08-17T09:30:13;13.57;;;12.13;;
80694;SDS011;70059;42.702;23.312;2023-08-17T09:32:39;11.55;;;10.70;;
80694;SDS011;70059;42.702;23.312;2023-08-17T09:35:06;10.98;;;10.07;;
80694;SDS011;70059;42.702;23.312;2023-08-17T09:37:33;11.65;;;10.48;;
80694;SDS011;70059;42.702;23.312;2023-08-17T09:39:59;11.00;;;10.13;;
80694;SDS011;70059;42.702;23.312;2023-08-17T09:42:26;11.68;;;10.68;;
80694;SDS011;70059;42.702;23.312;2023-08-17T09:44:53;11.30;;;10.30;;
80694;SDS011;70059;42.702;23.312;2023-08-17T09:47:20;10.52;;;9.63;;
80694;SDS011;70059;42.702;23.312;2023-08-17T09:49:53;11.77;;;10.13;;
80694;SDS011;70059;42.702;23.312;2023-08-17T09:52:21;10.52;;;9.57;;
80694;SDS011;70059;42.702;23.312;2023-08-17T09:54:47;11.15;;;10.45;;
80694;SDS011;70059;42.702;23.312;2023-08-17T09:57:13;10.98;;;9.98;;
80694;SDS011;70059;42.702;23.312;2023-08-17T09:59:41;11.77;;;10.60;;
80694;SDS011;70059;42.702;23.312;2023-08-17T10:02:25;12.40;;;11.50;;
80694;SDS011;70059;42.702;23.312;2023-08-17T10:04:53;11.80;;;10.80;;
80694;SDS011;70059;42.702;23.312;2023-08-17T10:07:24;10.50;;;9.40;;
80694;SDS011;70059;42.702;23.312;2023-08-17T10:10:03;9.50;;;8.90;;
80694;SDS011;70059;42.702;23.312;2023-08-17T10:12:32;10.88;;;9.70;;
80694;SDS011;70059;42.702;23.312;2023-08-17T10:15:13;10.13;;;9.23;;
80694;SDS011;70059;42.702;23.312;2023-08-17T10:17:55;10.00;;;9.20;;
80694;SDS011;70059;42.702;23.312;2023-08-17T10:20:28;10.65;;;9.82;;
80694;SDS011;70059;42.702;23.312;2023-08-17T10:22:56;10.20;;;9.30;;
80694;SDS011;70059;42.702;23.312;2023-08-17T10:25:37;9.85;;;9.10;;
80694;SDS011;70059;42.702;23.312;2023-08-17T10:28:04;9.93;;;9.02;;
80694;SDS011;70059;42.702;23.312;2023-08-17T10:30:31;9.02;;;8.43;;
80694;SDS011;70059;42.702;23.312;2023-08-17T10:32:58;9.48;;;8.77;;
80694;SDS011;70059;42.702;23.312;2023-08-17T10:35:26;10.10;;;9.15;;
80694;SDS011;70059;42.702;23.312;2023-08-17T10:37:52;13.77;;;10.10;;
80694;SDS011;70059;42.702;23.312;2023-08-17T10:40:25;10.52;;;9.60;;
80694;SDS011;70059;42.702;23.312;2023-08-17T10:42:55;10.65;;;9.75;;
80694;SDS011;70059;42.702;23.312;2023-08-17T10:45:34;12.38;;;10.10;;
80694;SDS011;70059;42.702;23.312;2023-08-17T10:50:34;17.92;;;9.57;;
80694;SDS011;70059;42.702;23.312;2023-08-17T10:53:20;9.73;;;8.95;;
80694;SDS011;70059;42.702;23.312;2023-08-17T10:55:46;10.45;;;9.55;;
80694;SDS011;70059;42.702;23.312;2023-08-17T10:58:16;10.88;;;9.77;;
80694;SDS011;70059;42.702;23.312;2023-08-17T11:00:42;11.00;;;10.00;;
80694;SDS011;70059;42.702;23.312;2023-08-17T11:03:10;12.23;;;9.77;;
80694;SDS011;70059;42.702;23.312;2023-08-17T11:05:52;11.80;;;10.73;;
80694;SDS011;70059;42.702;23.312;2023-08-17T11:08:38;10.30;;;9.40;;
80694;SDS011;70059;42.702;23.312;2023-08-17T11:11:12;11.15;;;10.00;;
80694;SDS011;70059;42.702;23.312;2023-08-17T12:29:07;12.43;;;11.35;;
80694;SDS011;70059;42.702;23.312;2023-08-17T12:31:33;12.25;;;11.10;;
80694;SDS011;70059;42.702;23.312;2023-08-17T12:33:59;13.18;;;11.90;;
80694;SDS011;70059;42.702;23.312;2023-08-17T12:36:25;12.57;;;11.48;;
80694;SDS011;70059;42.702;23.312;2023-08-17T12:38:51;12.10;;;11.10;;
80694;SDS011;70059;42.702;23.312;2023-08-17T12:41:16;11.82;;;10.80;;
80694;SDS011;70059;42.702;23.312;2023-08-17T12:43:45;13.03;;;11.70;;
80694;SDS011;70059;42.702;23.312;2023-08-17T12:46:10;12.65;;;11.43;;
80694;SDS011;70059;42.702;23.312;2023-08-17T12:48:36;12.18;;;11.07;;
80694;SDS011;70059;42.702;23.312;2023-08-17T12:51:03;13.20;;;11.98;;
80694;SDS011;70059;42.702;23.312;2023-08-17T12:53:29;14.00;;;11.70;;
80694;SDS011;70059;42.702;23.312;2023-08-17T12:55:55;13.43;;;12.13;;
80694;SDS011;70059;42.702;23.312;2023-08-17T12:58:20;13.15;;;10.55;;
80694;SDS011;70059;42.702;23.312;2023-08-17T13:00:46;11.95;;;10.98;;
80694;SDS011;70059;42.702;23.312;2023-08-17T13:03:21;12.90;;;11.60;;
80694;SDS011;70059;42.702;23.312;2023-08-17T13:05:47;11.60;;;10.57;;
80694;SDS011;70059;42.702;23.312;2023-08-17T13:08:13;12.35;;;11.25;;
80694;SDS011;70059;42.702;23.312;2023-08-17T13:10:38;12.77;;;11.68;;
80694;SDS011;70059;42.702;23.312;2023-08-17T13:13:04;12.45;;;11.50;;
80694;SDS011;70059;42.702;23.312;2023-08-17T13:15:31;11.38;;;10.57;;
80694;SDS011;70059;42.702;23.312;2023-08-17T13:17:58;12.20;;;11.20;;
80694;SDS011;70059;42.702;23.312;2023-08-17T13:20:24;11.32;;;10.52;;
80694;SDS011;70059;42.702;23.312;2023-08-17T13:22:50;12.20;;;10.82;;
80694;SDS011;70059;42.702;23.312;2023-08-17T13:25:15;12.65;;;10.90;;
80694;SDS011;70059;42.702;23.312;2023-08-17T13:27:42;12.38;;;11.23;;
80694;SDS011;70059;42.702;23.312;2023-08-17T13:30:07;14.38;;;11.10;;
80694;SDS011;70059;42.702;23.312;2023-08-17T13:32:34;15.50;;;11.25;;
80694;SDS011;70059;42.702;23.312;2023-08-17T13:35:01;13.10;;;11.80;;
80694;SDS011;70059;42.702;23.312;2023-08-17T13:37:27;14.00;;;11.77;;
80694;SDS011;70059;42.702;23.312;2023-08-17T13:39:53;12.18;;;10.80;;
80694;SDS011;70059;42.702;23.312;2023-08-17T13:42:19;11.90;;;11.00;;
80694;SDS011;70059;42.702;23.312;2023-08-17T13:44:45;11.32;;;9.98;;
80694;SDS011;70059;42.702;23.312;2023-08-17T13:47:11;12.25;;;10.98;;
80694;SDS011;70059;42.702;23.312;2023-08-17T13:49:37;14.15;;;11.65;;
80694;SDS011;70059;42.702;23.312;2023-08-17T13:52:02;22.77;;;10.60;;
80694;SDS011;70059;42.702;23.312;2023-08-17T13:54:28;14.00;;;11.13;;
80694;SDS011;70059;42.702;23.312;2023-08-17T13:56:54;12.85;;;10.07;;
80694;SDS011;70059;42.702;23.312;2023-08-17T13:59:20;11.70;;;10.60;;
80694;SDS011;70059;42.702;23.312;2023-08-17T14:01:46;18.10;;;12.25;;
80694;SDS011;70059;42.702;23.312;2023-08-17T14:04:11;12.07;;;10.98;;
80694;SDS011;70059;42.702;23.312;2023-08-17T14:06:39;13.13;;;9.88;;
80694;SDS011;70059;42.702;23.312;2023-08-17T14:09:05;14.55;;;10.77;;
80694;SDS011;70059;42.702;23.312;2023-08-17T14:11:31;11.20;;;10.07;;
80694;SDS011;70059;42.702;23.312;2023-08-17T14:13:57;16.35;;;10.30;;
80694;SDS011;70059;42.702;23.312;2023-08-17T14:16:23;11.38;;;9.63;;
80694;SDS011;70059;42.702;23.312;2023-08-17T14:18:49;11.52;;;10.48;;
80694;SDS011;70059;42.702;23.312;2023-08-17T14:21:15;11.13;;;10.13;;
80694;SDS011;70059;42.702;23.312;2023-08-17T14:23:41;11.13;;;10.20;;
80694;SDS011;70059;42.702;23.312;2023-08-17T14:26:06;11.60;;;9.60;;
80694;SDS011;70059;42.702;23.312;2023-08-17T14:28:32;13.00;;;9.73;;
80694;SDS011;70059;42.702;23.312;2023-08-17T14:30:58;11.10;;;10.10;;
80694;SDS011;70059;42.702;23.312;2023-08-17T14:33:24;12.07;;;10.82;;
80694;SDS011;70059;42.702;23.312;2023-08-17T14:35:49;10.65;;;9.60;;
80694;SDS011;70059;42.702;23.312;2023-08-17T14:38:15;11.45;;;10.25;;
80694;SDS011;70059;42.702;23.312;2023-08-17T14:40:44;12.77;;;11.23;;
80694;SDS011;70059;42.702;23.312;2023-08-17T14:43:11;11.40;;;10.27;;
80694;SDS011;70059;42.702;23.312;2023-08-17T14:45:40;11.48;;;10.18;;
80694;SDS011;70059;42.702;23.312;2023-08-17T14:48:07;12.63;;;10.82;;
80694;SDS011;70059;42.702;23.312;2023-08-17T14:50:36;11.77;;;10.60;;
80694;SDS011;70059;42.702;23.312;2023-08-17T14:53:03;12.27;;;11.10;;
80694;SDS011;70059;42.702;23.312;2023-08-17T14:55:31;11.10;;;10.20;;
80694;SDS011;70059;42.702;23.312;2023-08-17T14:57:57;10.77;;;9.88;;
80694;SDS011;70059;42.702;23.312;2023-08-17T15:00:24;11.18;;;10.07;;
80694;SDS011;70059;42.702;23.312;2023-08-17T15:02:50;10.80;;;9.93;;
80694;SDS011;70059;42.702;23.312;2023-08-17T15:05:16;12.68;;;11.27;;
80694;SDS011;70059;42.702;23.312;2023-08-17T15:07:42;10.75;;;9.73;;
80694;SDS011;70059;42.702;23.312;2023-08-17T15:10:08;11.27;;;10.27;;
80694;SDS011;70059;42.702;23.312;2023-08-17T15:12:33;11.13;;;10.02;;
80694;SDS011;70059;42.702;23.312;2023-08-17T15:14:59;11.18;;;10.30;;
80694;SDS011;70059;42.702;23.312;2023-08-17T15:17:26;11.07;;;9.75;;
80694;SDS011;70059;42.702;23.312;2023-08-17T15:19:51;11.15;;;10.13;;
80694;SDS011;70059;42.702;23.312;2023-08-17T15:22:17;12.02;;;9.50;;
80694;SDS011;70059;42.702;23.312;2023-08-17T15:24:43;13.80;;;10.68;;
80694;SDS011;70059;42.702;23.312;2023-08-17T15:27:09;11.30;;;10.13;;
80694;SDS011;70059;42.702;23.312;2023-08-17T15:29:35;12.55;;;10.15;;
80694;SDS011;70059;42.702;23.312;2023-08-17T15:32:01;13.13;;;10.13;;
80694;SDS011;70059;42.702;23.312;2023-08-17T15:34:26;17.65;;;10.18;;
80694;SDS011;70059;42.702;23.312;2023-08-17T15:36:52;11.23;;;9.52;;